createdAt,value
2023-01-22T00:03:01.686Z,7.05
2023-01-22T00:08:03.466Z,7.78
2023-01-22T00:13:05.191Z,6.72
2023-01-22T00:18:06.926Z,7.65
2023-01-22T00:23:08.649Z,7.13
2023-01-22T00:28:11.658Z,7.22
2023-01-22T00:33:13.371Z,6.88
2023-01-22T00:38:15.149Z,6.22
2023-01-22T00:43:16.945Z,7.10
2023-01-22T00:48:18.699Z,6.38
2023-01-22T00:53:20.750Z,6.40
2023-01-22T00:58:22.694Z,5.90
2023-01-22T01:03:28.044Z,6.63
2023-01-22T01:08:32.398Z,5.53
2023-01-22T01:13:42.854Z,6.32
2023-01-22T01:18:45.276Z,6.15
2023-01-22T01:23:47.202Z,5.55
2023-01-22T01:28:49.928Z,5.75
2023-01-22T01:33:51.910Z,6.50
2023-01-22T01:38:54.798Z,5.18
2023-01-22T01:44:18.294Z,5.10
2023-01-22T01:49:27.747Z,5.57
2023-01-22T01:54:31.339Z,5.28
2023-01-22T01:59:34.252Z,5.80
2023-01-22T02:04:36.095Z,5.47
2023-01-22T02:09:38.107Z,5.43
2023-01-22T02:14:43.099Z,5.30
2023-01-22T02:19:44.979Z,5.30
2023-01-22T02:24:49.763Z,5.63
2023-01-22T02:29:52.977Z,4.70
2023-01-22T02:34:55.356Z,4.95
2023-01-22T02:39:57.220Z,5.43
2023-01-22T02:44:59.084Z,5.28
2023-01-22T02:50:01.893Z,4.30
2023-01-22T02:55:05.495Z,4.32
2023-01-22T03:00:08.017Z,4.13
2023-01-22T03:05:09.810Z,6.60
2023-01-22T03:10:18.659Z,15.82
2023-01-22T03:15:39.877Z,4.78
2023-01-22T03:21:00.154Z,4.70
2023-01-22T03:26:02.554Z,5.53
2023-01-22T03:31:05.001Z,4.13
2023-01-22T03:36:11.047Z,4.28
2023-01-22T03:41:18.117Z,3.63
2023-01-22T03:46:23.493Z,4.13
2023-01-22T03:51:29.282Z,8.68
2023-01-22T03:56:32.181Z,9.18
2023-01-22T04:01:40.290Z,4.85
2023-01-22T04:06:43.595Z,4.65
2023-01-22T04:11:47.514Z,3.58
2023-01-22T04:16:51.932Z,6.03
2023-01-22T04:22:05.851Z,3.30
2023-01-22T04:27:09.321Z,4.07
2023-01-22T04:32:11.168Z,3.50
2023-01-22T04:37:31.869Z,4.45
2023-01-22T04:42:33.639Z,4.32
2023-01-22T04:47:42.713Z,3.60
2023-01-22T04:52:44.823Z,3.97
2023-01-22T04:57:46.996Z,4.65
2023-01-22T05:02:49.489Z,5.75
2023-01-22T05:07:51.605Z,5.43
2023-01-22T05:12:53.889Z,8.73
2023-01-22T05:17:56.425Z,5.30
2023-01-22T05:22:58.307Z,4.47
2023-01-22T05:28:01.182Z,3.55
2023-01-22T05:33:13.485Z,4.32
2023-01-22T05:38:15.803Z,8.60
2023-01-22T05:43:17.850Z,11.40
2023-01-22T05:48:25.625Z,8.80
2023-01-22T05:53:31.295Z,5.78
2023-01-22T05:58:33.563Z,5.00
2023-01-22T06:03:35.413Z,4.60
2023-01-22T06:08:41.003Z,5.13
2023-01-22T06:13:43.593Z,5.45
2023-01-22T06:18:54.561Z,4.95
2023-01-22T06:23:58.525Z,5.60
2023-01-22T06:29:00.537Z,5.07
2023-01-22T06:34:05.418Z,4.82
2023-01-22T06:39:07.534Z,5.10
2023-01-22T06:44:20.156Z,5.82
2023-01-22T06:49:22.213Z,5.70
2023-01-22T06:54:23.959Z,6.82
2023-01-22T06:59:25.745Z,6.82
2023-01-22T07:04:27.482Z,7.53
2023-01-22T07:09:29.193Z,7.57
2023-01-22T07:14:36.822Z,6.70
2023-01-22T07:19:39.439Z,6.90
2023-01-22T07:24:41.413Z,6.70
2023-01-22T07:29:43.178Z,6.47
2023-01-22T07:34:45.033Z,6.45
2023-01-22T07:39:46.816Z,7.32
2023-01-22T07:44:48.558Z,11.05
2023-01-22T07:49:50.351Z,11.88
2023-01-22T07:54:52.067Z,20.65
2023-01-22T07:59:53.786Z,12.55
2023-01-22T08:04:55.551Z,8.63
2023-01-22T08:09:57.426Z,16.05
2023-01-22T08:14:59.197Z,14.00
2023-01-22T08:20:00.964Z,18.60
2023-01-22T08:25:02.734Z,13.57
2023-01-22T08:30:05.498Z,12.68
2023-01-22T08:35:08.077Z,12.77
2023-01-22T08:40:11.025Z,8.70
2023-01-22T08:45:12.735Z,10.52
2023-01-22T08:50:15.252Z,13.90
2023-01-22T08:55:17.078Z,18.48
2023-01-22T09:00:19.219Z,14.88
2023-01-22T09:05:21.124Z,13.00
2023-01-22T09:10:23.146Z,19.67
2023-01-22T09:15:25.090Z,14.77
2023-01-22T09:20:27.067Z,12.65
2023-01-22T09:25:29.350Z,16.30
2023-01-22T09:30:32.120Z,12.07
2023-01-22T09:35:33.908Z,48.35
2023-01-22T09:40:51.533Z,57.53
2023-01-22T09:45:56.888Z,16.90
2023-01-22T09:50:59.248Z,14.25
2023-01-22T09:56:04.697Z,11.82
2023-01-22T10:01:07.497Z,14.63
2023-01-22T10:06:23.649Z,13.68
2023-01-22T10:11:25.785Z,13.90
2023-01-22T10:16:27.875Z,11.20
2023-01-22T10:21:32.390Z,10.45
2023-01-22T10:26:54.252Z,11.52
2023-01-22T10:31:58.596Z,9.38
2023-01-22T10:37:03.117Z,9.98
2023-01-22T10:42:05.076Z,9.73
2023-01-22T10:47:09.869Z,8.70
2023-01-22T10:52:23.505Z,8.85
2023-01-22T10:57:34.162Z,8.23
2023-01-22T11:02:40.568Z,9.90
2023-01-22T11:07:44.178Z,9.32
2023-01-22T11:12:52.149Z,11.05
2023-01-22T11:17:57.686Z,10.13
2023-01-22T11:23:11.351Z,10.18
2023-01-22T11:28:28.761Z,11.00
2023-01-22T11:33:39.464Z,10.70
2023-01-22T11:39:02.916Z,9.93
2023-01-22T11:44:22.294Z,15.13
2023-01-22T11:49:56.678Z,11.60
2023-01-22T11:55:18.345Z,12.70
2023-01-22T12:00:33.686Z,11.93
2023-01-22T12:06:12.864Z,12.75
2023-01-22T12:11:32.483Z,12.88
2023-01-22T12:17:04.901Z,12.93
2023-01-22T12:22:21.226Z,12.60
2023-01-22T12:27:29.015Z,12.80
2023-01-22T12:32:33.747Z,11.95
2023-01-22T12:37:40.495Z,13.65
2023-01-22T12:42:58.658Z,14.80
2023-01-22T12:48:29.493Z,16.23
2023-01-22T12:53:36.323Z,13.98
2023-01-22T12:58:40.823Z,13.48
2023-01-22T13:03:42.633Z,14.95
2023-01-22T13:08:45.775Z,15.15
2023-01-22T13:13:52.178Z,12.43
2023-01-22T13:18:58.515Z,14.02
2023-01-22T13:24:05.000Z,14.13
2023-01-22T13:29:20.477Z,13.68
2023-01-22T13:34:22.714Z,14.10
2023-01-22T13:39:30.443Z,13.57
2023-01-22T13:44:35.977Z,13.98
2023-01-22T13:49:44.032Z,15.02
2023-01-22T13:54:59.026Z,15.27
2023-01-22T14:00:02.054Z,14.15
2023-01-22T14:05:04.360Z,13.95
2023-01-22T14:10:19.345Z,13.10
2023-01-22T14:15:21.812Z,14.05
2023-01-22T14:20:23.532Z,13.40
2023-01-22T14:25:25.293Z,12.55
2023-01-22T14:30:27.093Z,12.30
2023-01-22T14:35:29.260Z,14.23
2023-01-22T14:40:32.927Z,13.35
2023-01-22T14:45:34.849Z,14.50
2023-01-22T14:50:39.645Z,14.90
2023-01-22T14:55:45.399Z,16.23
2023-01-22T15:00:47.219Z,15.07
2023-01-22T15:05:52.761Z,16.17
2023-01-22T15:10:54.518Z,16.40
2023-01-22T15:15:56.244Z,16.15
2023-01-22T15:20:58.145Z,15.43
2023-01-22T15:26:05.727Z,15.07
2023-01-22T15:31:08.004Z,15.60
2023-01-22T15:36:09.854Z,17.42
2023-01-22T15:41:26.424Z,15.20
2023-01-22T15:46:32.753Z,16.10
2023-01-22T15:51:35.793Z,16.52
2023-01-22T15:56:38.047Z,15.90
2023-01-22T16:01:40.082Z,17.40
2023-01-22T16:06:41.843Z,18.67
2023-01-22T16:11:43.614Z,17.40
2023-01-22T16:16:45.657Z,20.48
2023-01-22T16:21:47.959Z,18.15
2023-01-22T16:26:49.692Z,15.07
2023-01-22T16:31:51.774Z,15.10
2023-01-22T16:36:55.412Z,17.48
2023-01-22T16:41:57.198Z,15.40
2023-01-22T16:47:00.598Z,14.13
2023-01-22T16:52:17.035Z,15.25
2023-01-22T16:57:23.961Z,16.58
2023-01-22T17:02:25.757Z,15.27
2023-01-22T17:07:33.691Z,15.05
2023-01-22T17:12:36.156Z,15.45
2023-01-22T17:17:37.947Z,14.82
2023-01-22T17:22:39.689Z,14.90
2023-01-22T17:27:41.397Z,15.73
2023-01-22T17:32:43.279Z,16.10
2023-01-22T17:37:45.503Z,16.92
2023-01-22T17:42:47.329Z,16.42
2023-01-22T17:47:49.298Z,15.63
2023-01-22T17:52:51.877Z,17.13
2023-01-22T17:57:56.860Z,17.77
2023-01-22T18:02:58.649Z,17.05
2023-01-22T18:08:00.508Z,15.88
2023-01-22T18:13:02.313Z,16.77
2023-01-22T18:18:05.326Z,15.77
2023-01-22T18:23:07.041Z,16.73
2023-01-22T18:28:10.135Z,15.90
2023-01-22T18:33:14.130Z,16.90
2023-01-22T18:38:16.742Z,16.50
2023-01-22T18:43:19.635Z,15.50
2023-01-22T18:48:23.010Z,16.95
2023-01-22T18:53:25.523Z,16.38
2023-01-22T18:58:29.776Z,15.40
2023-01-22T19:03:31.556Z,15.43
2023-01-22T19:08:34.820Z,15.77
2023-01-22T19:13:36.671Z,16.40
2023-01-22T19:18:42.235Z,15.90
2023-01-22T19:23:46.156Z,16.30
2023-01-22T19:28:48.644Z,16.35
2023-01-22T19:33:52.326Z,15.85
2023-01-22T19:38:59.373Z,15.25
2023-01-22T19:44:02.497Z,17.42
2023-01-22T19:49:05.260Z,17.10
2023-01-22T19:54:08.505Z,20.80
2023-01-22T19:59:14.530Z,16.77
2023-01-22T20:04:23.282Z,17.10
2023-01-22T20:09:25.447Z,18.05
2023-01-22T20:14:32.788Z,18.02
2023-01-22T20:19:38.049Z,17.85
2023-01-22T20:24:41.491Z,18.33
2023-01-22T20:29:43.329Z,16.52
2023-01-22T20:34:48.855Z,17.40
2023-01-22T20:39:50.654Z,17.40
2023-01-22T20:44:52.412Z,17.73
2023-01-22T20:49:54.189Z,16.92
2023-01-22T20:55:01.803Z,17.05
2023-01-22T21:00:04.803Z,17.88
2023-01-22T21:05:06.753Z,16.55
2023-01-22T21:10:09.372Z,17.02
2023-01-22T21:15:11.300Z,19.20
2023-01-22T21:20:13.183Z,19.17
2023-01-22T21:25:15.069Z,19.17
2023-01-22T21:30:17.246Z,19.25
2023-01-22T21:35:19.032Z,19.85
2023-01-22T21:40:21.086Z,17.77
2023-01-22T21:45:41.597Z,19.27
2023-01-22T21:50:44.000Z,18.35
2023-01-22T21:55:54.705Z,17.73
2023-01-22T22:01:06.440Z,18.50
2023-01-22T22:06:09.643Z,18.15
2023-01-22T22:11:13.609Z,20.38
2023-01-22T22:16:15.642Z,18.60
2023-01-22T22:21:17.782Z,17.75
2023-01-22T22:26:19.530Z,18.10
2023-01-22T22:31:22.908Z,16.85
2023-01-22T22:36:27.786Z,18.17
2023-01-22T22:41:31.950Z,17.75
2023-01-22T22:46:35.963Z,17.25
2023-01-22T22:51:40.351Z,17.42
2023-01-22T22:56:42.520Z,16.65
2023-01-22T23:01:44.274Z,17.92
2023-01-22T23:06:46.934Z,17.98
2023-01-22T23:11:51.919Z,15.57
2023-01-22T23:16:53.798Z,16.60
2023-01-22T23:21:58.426Z,17.15
2023-01-22T23:27:00.208Z,18.00
2023-01-22T23:32:01.926Z,17.50
2023-01-22T23:37:03.708Z,19.08
2023-01-22T23:42:05.541Z,18.08
2023-01-22T23:47:07.260Z,17.27
2023-01-22T23:52:08.986Z,17.27
2023-01-22T23:57:10.759Z,21.33
